Time;durP1;ratioP1;P1;durP2;ratioP2;P2;SDS_P1;SDS_P2;PMS_P1;PMS_P2;Temp;Humidity;BMP_temperature;BMP_pressure;BME280_temperature;BME280_humidity;BME280_pressure;Samples;Min_cycle;Max_cycle;Signal;HPM_P1;HPM_P2
2023/10/20 00:01:53;;;;;;;10.35;7.70;;;;;;;;;;5078640;28;20417;-64
2023/10/20 00:04:20;;;;;;;8.90;7.25;;;;;;;;;;5080618;28;20413;-65
2023/10/20 00:06:47;;;;;;;9.23;7.45;;;;;;;;;;5077929;28;20473;-64
2023/10/20 00:09:15;;;;;;;9.95;7.22;;;;;;;;;;5080975;28;20408;-64
2023/10/20 00:11:43;;;;;;;9.00;7.85;;;;;;;;;;5082508;28;20409;-65
2023/10/20 00:14:11;;;;;;;9.15;7.30;;;;;;;;;;5083856;28;20410;-64
2023/10/20 00:16:38;;;;;;;9.20;7.20;;;;;;;;;;5083783;28;20414;-64
2023/10/20 00:19:06;;;;;;;8.73;7.68;;;;;;;;;;5083249;28;20775;-64
2023/10/20 00:21:35;;;;;;;9.88;8.07;;;;;;;;;;5081139;28;20522;-63
2023/10/20 00:24:02;;;;;;;10.98;8.52;;;;;;;;;;5083278;28;20438;-64
2023/10/20 00:26:29;;;;;;;8.77;7.87;;;;;;;;;;5082636;28;20411;-64
2023/10/20 00:28:56;;;;;;;9.48;8.18;;;;;;;;;;5080899;28;20411;-65
2023/10/20 00:31:24;;;;;;;9.68;8.50;;;;;;;;;;5083269;28;20406;-64
2023/10/20 00:33:51;;;;;;;10.70;8.50;;;;;;;;;;5082679;28;20781;-64
2023/10/20 00:36:18;;;;;;;11.43;8.70;;;;;;;;;;5077908;28;20551;-63
2023/10/20 00:38:45;;;;;;;10.85;8.80;;;;;;;;;;5079484;28;20461;-64
2023/10/20 00:41:12;;;;;;;9.82;8.50;;;;;;;;;;5074635;28;20414;-65
2023/10/20 00:43:40;;;;;;;9.70;8.68;;;;;;;;;;5078421;28;20912;-65
2023/10/20 00:46:08;;;;;;;12.43;9.10;;;;;;;;;;5076358;28;20449;-65
2023/10/20 00:48:37;;;;;;;11.57;8.80;;;;;;;;;;5075857;28;20406;-63
2023/10/20 00:51:05;;;;;;;10.82;9.10;;;;;;;;;;5077898;28;20407;-64
2023/10/20 00:53:32;;;;;;;10.63;9.43;;;;;;;;;;5072473;28;20419;-65
2023/10/20 00:56:00;;;;;;;13.82;10.25;;;;;;;;;;5078879;28;20424;-64
2023/10/20 00:58:27;;;;;;;14.00;10.60;;;;;;;;;;5074399;28;20409;-64
2023/10/20 01:00:54;;;;;;;15.20;11.45;;;;;;;;;;5075313;28;20427;-64
2023/10/20 01:03:22;;;;;;;15.68;11.20;;;;;;;;;;5076923;28;21077;-64
2023/10/20 01:05:51;;;;;;;16.77;12.60;;;;;;;;;;5085649;28;20414;-64
2023/10/20 01:08:18;;;;;;;19.15;13.75;;;;;;;;;;5079331;28;20801;-65
2023/10/20 01:10:45;;;;;;;17.40;13.60;;;;;;;;;;5081009;28;20836;-65
2023/10/20 01:13:12;;;;;;;14.52;12.70;;;;;;;;;;5083087;28;20455;-64
2023/10/20 01:15:39;;;;;;;17.75;13.23;;;;;;;;;;5080458;28;20442;-64
2023/10/20 01:18:06;;;;;;;16.90;13.63;;;;;;;;;;5081039;28;20445;-64
2023/10/20 01:20:33;;;;;;;18.58;13.98;;;;;;;;;;5082459;28;20919;-64
2023/10/20 01:23:02;;;;;;;18.80;14.07;;;;;;;;;;5079156;28;20502;-64
2023/10/20 01:25:31;;;;;;;17.55;13.68;;;;;;;;;;5083770;28;20414;-64
2023/10/20 01:27:58;;;;;;;16.40;14.23;;;;;;;;;;5081253;28;20415;-63
2023/10/20 01:30:25;;;;;;;18.20;13.60;;;;;;;;;;5082221;28;20439;-64
2023/10/20 01:32:52;;;;;;;19.48;13.75;;;;;;;;;;5083157;28;20861;-64
2023/10/20 01:35:19;;;;;;;18.33;13.97;;;;;;;;;;5085798;28;20405;-64
2023/10/20 01:37:47;;;;;;;20.90;14.73;;;;;;;;;;5075573;28;20441;-63
2023/10/20 01:40:14;;;;;;;20.05;15.50;;;;;;;;;;5081312;28;20449;-64
2023/10/20 01:42:42;;;;;;;19.38;14.85;;;;;;;;;;5079394;28;20818;-63
2023/10/20 01:45:10;;;;;;;19.98;15.50;;;;;;;;;;5081554;28;20459;-64
2023/10/20 01:47:37;;;;;;;20.08;15.48;;;;;;;;;;5084620;28;20497;-63
2023/10/20 01:50:04;;;;;;;22.02;15.95;;;;;;;;;;5081699;28;20404;-64
2023/10/20 01:52:31;;;;;;;20.83;15.65;;;;;;;;;;5082010;28;20809;-64
2023/10/20 01:54:59;;;;;;;22.95;15.70;;;;;;;;;;5081197;28;20499;-64
2023/10/20 01:57:26;;;;;;;21.02;15.82;;;;;;;;;;5079244;28;20413;-63
2023/10/20 01:59:54;;;;;;;22.02;15.90;;;;;;;;;;5081738;28;20426;-63
2023/10/20 02:02:21;;;;;;;25.15;16.30;;;;;;;;;;5081173;28;20487;-63
2023/10/20 02:04:48;;;;;;;24.02;17.20;;;;;;;;;;5085999;28;20463;-63
2023/10/20 02:07:16;;;;;;;22.48;16.98;;;;;;;;;;5079903;28;20417;-63
2023/10/20 02:09:42;;;;;;;24.00;17.65;;;;;;;;;;5078610;28;20777;-64
2023/10/20 02:12:11;;;;;;;25.40;18.65;;;;;;;;;;5081924;28;20451;-64
2023/10/20 02:14:38;;;;;;;21.58;16.23;;;;;;;;;;5081424;28;20493;-64
2023/10/20 02:17:07;;;;;;;23.05;17.20;;;;;;;;;;5080573;28;20510;-65
2023/10/20 02:19:34;;;;;;;24.37;17.00;;;;;;;;;;5079097;28;20821;-64
2023/10/20 02:22:01;;;;;;;24.52;17.42;;;;;;;;;;5081665;28;20410;-64
2023/10/20 02:24:27;;;;;;;28.48;19.23;;;;;;;;;;5080692;28;20437;-64
2023/10/20 02:26:54;;;;;;;24.08;17.92;;;;;;;;;;5079155;28;20874;-64
2023/10/20 02:29:21;;;;;;;27.55;19.13;;;;;;;;;;5078903;28;20411;-65
2023/10/20 02:31:48;;;;;;;26.95;19.02;;;;;;;;;;5080457;28;20429;-64
2023/10/20 02:34:16;;;;;;;27.02;19.70;;;;;;;;;;5081246;28;20916;-64
2023/10/20 02:36:43;;;;;;;28.00;19.20;;;;;;;;;;5075683;28;20473;-64
2023/10/20 02:39:10;;;;;;;28.80;20.08;;;;;;;;;;5077518;28;20461;-64
2023/10/20 02:41:37;;;;;;;29.90;20.60;;;;;;;;;;5079091;28;20412;-63
2023/10/20 02:44:04;;;;;;;31.52;21.15;;;;;;;;;;5081390;28;20422;-64
2023/10/20 02:46:31;;;;;;;32.10;20.95;;;;;;;;;;5079875;28;20419;-64
2023/10/20 02:48:58;;;;;;;32.03;21.80;;;;;;;;;;5079530;28;20461;-63
2023/10/20 02:51:27;;;;;;;34.38;21.85;;;;;;;;;;5081798;28;20405;-64
2023/10/20 02:53:54;;;;;;;33.37;22.03;;;;;;;;;;5079885;28;20481;-63
2023/10/20 02:56:23;;;;;;;32.42;21.55;;;;;;;;;;5079040;28;20413;-64
2023/10/20 02:58:50;;;;;;;35.07;22.33;;;;;;;;;;5082007;28;20406;-64
2023/10/20 03:01:18;;;;;;;34.97;21.67;;;;;;;;;;5084321;28;20854;-65
2023/10/20 03:03:45;;;;;;;34.53;21.50;;;;;;;;;;5085276;28;20510;-64
2023/10/20 03:06:12;;;;;;;36.63;22.15;;;;;;;;;;5084490;28;20459;-64
2023/10/20 03:08:41;;;;;;;34.42;21.25;;;;;;;;;;5078069;28;20417;-64
2023/10/20 03:11:09;;;;;;;37.25;22.92;;;;;;;;;;5084998;28;20431;-64
2023/10/20 03:13:36;;;;;;;37.28;23.38;;;;;;;;;;5082867;28;20434;-64
2023/10/20 03:16:03;;;;;;;38.47;23.37;;;;;;;;;;5083920;28;20408;-64
2023/10/20 03:18:30;;;;;;;39.38;23.38;;;;;;;;;;5084698;28;20888;-64
2023/10/20 03:21:00;;;;;;;39.37;24.07;;;;;;;;;;5082050;28;20463;-65
2023/10/20 03:23:27;;;;;;;42.83;25.00;;;;;;;;;;5083390;28;20416;-65
2023/10/20 03:25:55;;;;;;;42.70;24.97;;;;;;;;;;5085221;28;20807;-64
2023/10/20 03:28:22;;;;;;;43.00;25.25;;;;;;;;;;5082425;28;20412;-64
2023/10/20 03:30:50;;;;;;;40.70;25.27;;;;;;;;;;5083130;28;20409;-64
2023/10/20 03:33:17;;;;;;;40.33;25.00;;;;;;;;;;5084833;28;20504;-64
2023/10/20 03:35:45;;;;;;;43.03;25.83;;;;;;;;;;5082766;28;20911;-64
2023/10/20 03:38:14;;;;;;;46.17;26.23;;;;;;;;;;5085460;28;20454;-64
2023/10/20 03:40:41;;;;;;;50.40;26.08;;;;;;;;;;5081784;28;20477;-64
2023/10/20 03:43:10;;;;;;;47.03;26.13;;;;;;;;;;5084046;28;21057;-64
2023/10/20 03:45:41;;;;;;;46.08;25.65;;;;;;;;;;5083802;28;20453;-64
2023/10/20 03:48:09;;;;;;;45.22;26.30;;;;;;;;;;5081618;28;20425;-64
2023/10/20 03:50:38;;;;;;;46.60;26.27;;;;;;;;;;5083148;28;20396;-65
2023/10/20 03:53:05;;;;;;;48.55;27.65;;;;;;;;;;5084368;28;20406;-64
2023/10/20 03:55:34;;;;;;;51.08;27.88;;;;;;;;;;5081825;28;20465;-65
2023/10/20 03:58:02;;;;;;;48.67;27.40;;;;;;;;;;5082771;28;20518;-63
2023/10/20 04:00:31;;;;;;;54.25;28.05;;;;;;;;;;5084049;28;20424;-64
2023/10/20 04:02:58;;;;;;;53.13;28.17;;;;;;;;;;5081692;28;20492;-64
2023/10/20 04:05:26;;;;;;;55.15;29.00;;;;;;;;;;5083587;28;20469;-64
2023/10/20 04:07:53;;;;;;;53.20;28.50;;;;;;;;;;5076434;28;20601;-64
2023/10/20 04:10:20;;;;;;;55.47;27.70;;;;;;;;;;5081922;28;20403;-63
2023/10/20 04:12:48;;;;;;;49.83;28.07;;;;;;;;;;5082601;28;20473;-63
2023/10/20 04:15:16;;;;;;;54.63;28.38;;;;;;;;;;5083855;28;20897;-64
2023/10/20 04:17:51;;;;;;;51.83;27.58;;;;;;;;;;5081150;28;20433;-64
2023/10/20 04:20:18;;;;;;;49.00;27.00;;;;;;;;;;5080789;28;25143;-64
2023/10/20 04:22:49;;;;;;;48.95;27.02;;;;;;;;;;5083663;28;20457;-63
2023/10/20 04:25:16;;;;;;;50.10;27.42;;;;;;;;;;5082474;28;20435;-64
2023/10/20 04:27:48;;;;;;;50.67;28.63;;;;;;;;;;5088892;28;20461;-64
2023/10/20 04:50:15;;;;;;;58.83;30.77;;;;;;;;;;5059100;28;20419;-64
2023/10/20 04:53:11;;;;;;;60.45;30.67;;;;;;;;;;5083129;28;20399;-64
2023/10/20 04:58:45;;;;;;;61.63;32.00;;;;;;;;;;5082868;28;20427;-64
2023/10/20 05:01:21;;;;;;;61.53;32.40;;;;;;;;;;5081810;28;25105;-64
2023/10/20 05:03:52;;;;;;;60.42;31.67;;;;;;;;;;5080891;28;20400;-64
2023/10/20 05:06:22;;;;;;;63.00;32.50;;;;;;;;;;5083287;28;20508;-64
2023/10/20 05:08:49;;;;;;;63.38;33.58;;;;;;;;;;5079084;28;20410;-64
2023/10/20 05:11:17;;;;;;;67.03;33.17;;;;;;;;;;5081379;28;20404;-63
2023/10/20 05:13:44;;;;;;;70.00;34.47;;;;;;;;;;5080267;28;20412;-64
2023/10/20 05:16:12;;;;;;;63.22;32.97;;;;;;;;;;5079598;28;20442;-64
2023/10/20 05:18:39;;;;;;;69.20;34.65;;;;;;;;;;5085419;28;20410;-63
2023/10/20 05:21:06;;;;;;;66.18;32.80;;;;;;;;;;5085467;28;20425;-64
2023/10/20 05:23:36;;;;;;;68.13;33.47;;;;;;;;;;5080335;28;20457;-64
2023/10/20 05:26:03;;;;;;;69.30;33.42;;;;;;;;;;5080967;28;20403;-63
2023/10/20 05:28:30;;;;;;;63.42;32.22;;;;;;;;;;5082432;28;20775;-65
2023/10/20 05:30:58;;;;;;;61.53;32.78;;;;;;;;;;5079999;28;20815;-64
2023/10/20 05:33:26;;;;;;;60.05;30.67;;;;;;;;;;5080864;28;20400;-64
2023/10/20 05:35:53;;;;;;;63.58;32.45;;;;;;;;;;5085127;28;20457;-63
2023/10/20 05:38:20;;;;;;;58.28;30.40;;;;;;;;;;5076944;28;20431;-65
2023/10/20 05:40:59;;;;;;;55.40;29.38;;;;;;;;;;5080810;28;20809;-63
2023/10/20 05:43:26;;;;;;;58.45;30.88;;;;;;;;;;5080047;28;25136;-65
2023/10/20 05:45:53;;;;;;;62.30;32.33;;;;;;;;;;5080411;28;20874;-64
2023/10/20 05:48:20;;;;;;;58.65;30.48;;;;;;;;;;5082207;28;20403;-64
2023/10/20 05:50:47;;;;;;;56.10;31.30;;;;;;;;;;5079619;28;20462;-64
2023/10/20 05:53:15;;;;;;;55.45;30.20;;;;;;;;;;5080740;28;20404;-64
2023/10/20 05:55:42;;;;;;;56.33;30.40;;;;;;;;;;5082254;28;20400;-65
2023/10/20 05:58:10;;;;;;;56.63;30.42;;;;;;;;;;5079709;28;20401;-65
2023/10/20 06:00:37;;;;;;;53.17;30.15;;;;;;;;;;5080458;28;20441;-64
2023/10/20 06:03:06;;;;;;;52.60;29.80;;;;;;;;;;5082021;28;20895;-65
2023/10/20 06:05:33;;;;;;;45.80;27.13;;;;;;;;;;5083680;28;20980;-65
2023/10/20 06:08:00;;;;;;;48.85;28.58;;;;;;;;;;5074440;28;20519;-65
2023/10/20 06:10:28;;;;;;;51.20;28.65;;;;;;;;;;5082039;28;20399;-62
2023/10/20 06:12:55;;;;;;;48.80;27.23;;;;;;;;;;5079502;28;20944;-62
2023/10/20 06:15:24;;;;;;;46.80;27.13;;;;;;;;;;5080176;28;20404;-62
2023/10/20 06:17:51;;;;;;;45.63;26.58;;;;;;;;;;5081785;28;20416;-61
2023/10/20 06:20:19;;;;;;;46.33;27.48;;;;;;;;;;5079519;28;20486;-60
2023/10/20 06:22:46;;;;;;;48.40;27.65;;;;;;;;;;5077407;28;20434;-60
2023/10/20 06:25:13;;;;;;;43.97;26.73;;;;;;;;;;5078302;28;21325;-62
2023/10/20 06:27:43;;;;;;;47.95;27.70;;;;;;;;;;5071496;28;20408;-63
2023/10/20 06:30:19;;;;;;;44.65;26.60;;;;;;;;;;5077794;28;20412;-63
2023/10/20 06:32:56;;;;;;;44.88;26.98;;;;;;;;;;5077667;28;25107;-63
2023/10/20 06:35:32;;;;;;;47.72;28.48;;;;;;;;;;5084225;28;25118;-61
2023/10/20 06:38:11;;;;;;;69.15;43.47;;;;;;;;;;5077417;28;20431;-62
2023/10/20 06:40:38;;;;;;;48.83;28.40;;;;;;;;;;5083494;28;25124;-61
2023/10/20 06:43:05;;;;;;;41.17;26.08;;;;;;;;;;5083429;28;20506;-62
2023/10/20 06:45:32;;;;;;;47.50;28.45;;;;;;;;;;5085849;28;20434;-61
2023/10/20 06:48:01;;;;;;;49.65;27.75;;;;;;;;;;5083729;28;20462;-61
2023/10/20 06:50:28;;;;;;;48.67;27.95;;;;;;;;;;5083925;28;20432;-62
2023/10/20 06:52:55;;;;;;;46.60;28.85;;;;;;;;;;5085555;28;20399;-62
2023/10/20 06:55:22;;;;;;;43.30;26.15;;;;;;;;;;5083653;28;20404;-62
2023/10/20 06:57:49;;;;;;;43.38;26.70;;;;;;;;;;5083322;28;20897;-62
2023/10/20 07:00:17;;;;;;;49.10;29.45;;;;;;;;;;5085242;28;20452;-61
2023/10/20 07:02:45;;;;;;;48.65;28.30;;;;;;;;;;5083625;28;20483;-61
2023/10/20 07:05:14;;;;;;;49.45;27.88;;;;;;;;;;5088381;28;20409;-62
2023/10/20 07:07:41;;;;;;;44.35;26.02;;;;;;;;;;5076015;28;20932;-62
2023/10/20 07:10:10;;;;;;;40.10;26.58;;;;;;;;;;5081173;28;20482;-62
2023/10/20 07:12:37;;;;;;;42.03;25.88;;;;;;;;;;5079301;28;20429;-65
2023/10/20 07:15:06;;;;;;;40.65;25.85;;;;;;;;;;5084601;28;20471;-63
2023/10/20 07:17:34;;;;;;;42.80;25.73;;;;;;;;;;5085695;28;20755;-63
2023/10/20 07:20:04;;;;;;;39.63;25.20;;;;;;;;;;5084039;28;20450;-64
2023/10/20 07:22:33;;;;;;;39.97;25.47;;;;;;;;;;5085173;28;20456;-62
2023/10/20 07:25:00;;;;;;;36.78;23.60;;;;;;;;;;5083046;28;20440;-60
2023/10/20 07:27:27;;;;;;;37.65;23.95;;;;;;;;;;5085055;28;20465;-62
2023/10/20 07:29:54;;;;;;;38.90;24.20;;;;;;;;;;5082264;28;20414;-63
2023/10/20 07:32:21;;;;;;;31.25;21.65;;;;;;;;;;5082558;28;20920;-62
2023/10/20 07:34:48;;;;;;;34.28;22.27;;;;;;;;;;5085911;28;20467;-63
2023/10/20 07:37:16;;;;;;;35.25;23.33;;;;;;;;;;5079622;28;20808;-64
2023/10/20 07:39:45;;;;;;;34.72;21.75;;;;;;;;;;5078771;28;20510;-64
2023/10/20 07:42:12;;;;;;;30.60;20.60;;;;;;;;;;5077967;28;20836;-64
2023/10/20 07:44:40;;;;;;;29.20;19.60;;;;;;;;;;5091163;28;20413;-64
2023/10/20 07:47:07;;;;;;;32.38;20.83;;;;;;;;;;5088742;28;20500;-65
2023/10/20 07:49:34;;;;;;;29.25;18.90;;;;;;;;;;5084468;28;20845;-64
2023/10/20 07:52:01;;;;;;;35.75;26.23;;;;;;;;;;5089951;28;20409;-63
2023/10/20 07:54:29;;;;;;;28.15;19.95;;;;;;;;;;5082323;28;20457;-65
2023/10/20 07:56:59;;;;;;;23.48;17.02;;;;;;;;;;5083981;28;20423;-65
2023/10/20 07:59:26;;;;;;;26.73;17.25;;;;;;;;;;5081675;28;20483;-65
2023/10/20 08:01:53;;;;;;;24.08;16.42;;;;;;;;;;5082097;28;20829;-64
2023/10/20 08:04:20;;;;;;;22.75;15.98;;;;;;;;;;5084699;28;20761;-62
2023/10/20 08:06:47;;;;;;;20.40;14.35;;;;;;;;;;5082128;28;20415;-62
2023/10/20 08:09:14;;;;;;;19.85;14.80;;;;;;;;;;5079751;28;20429;-62
2023/10/20 08:11:42;;;;;;;17.90;12.60;;;;;;;;;;5076061;28;20494;-61
2023/10/20 08:14:10;;;;;;;19.73;14.10;;;;;;;;;;5074690;28;20901;-61
2023/10/20 08:16:38;;;;;;;19.13;13.05;;;;;;;;;;5090066;28;20446;-62
2023/10/20 08:19:05;;;;;;;21.77;13.90;;;;;;;;;;5081681;28;20456;-64
2023/10/20 08:21:32;;;;;;;16.90;12.50;;;;;;;;;;5082408;28;21120;-64
2023/10/20 08:23:59;;;;;;;17.45;12.18;;;;;;;;;;5083391;28;20855;-62
2023/10/20 08:26:26;;;;;;;16.15;12.02;;;;;;;;;;5079620;28;20455;-62
2023/10/20 08:28:53;;;;;;;15.07;11.50;;;;;;;;;;5087123;28;20409;-62
2023/10/20 08:31:22;;;;;;;15.00;11.00;;;;;;;;;;5081925;28;20455;-62
2023/10/20 08:33:51;;;;;;;14.40;11.80;;;;;;;;;;5083215;28;20516;-62
2023/10/20 08:36:20;;;;;;;15.70;11.30;;;;;;;;;;5079316;28;20463;-61
2023/10/20 08:38:49;;;;;;;13.93;11.00;;;;;;;;;;5083685;28;20489;-61
2023/10/20 08:41:16;;;;;;;13.60;10.02;;;;;;;;;;5082688;28;20480;-62
2023/10/20 08:43:44;;;;;;;13.80;10.30;;;;;;;;;;5082284;28;20514;-62
2023/10/20 08:46:13;;;;;;;12.73;10.18;;;;;;;;;;5084731;28;20410;-61
2023/10/20 08:48:42;;;;;;;13.45;9.73;;;;;;;;;;5080467;28;20889;-62
2023/10/20 08:51:09;;;;;;;12.60;9.82;;;;;;;;;;5081934;28;20417;-62
2023/10/20 08:53:37;;;;;;;14.10;9.90;;;;;;;;;;5083115;28;20409;-62
2023/10/20 08:56:04;;;;;;;11.83;9.50;;;;;;;;;;5079641;28;20412;-62
2023/10/20 08:58:32;;;;;;;12.25;10.05;;;;;;;;;;5081590;28;20412;-62
2023/10/20 09:00:59;;;;;;;12.10;9.35;;;;;;;;;;5083165;28;20414;-61
2023/10/20 09:03:27;;;;;;;13.75;9.77;;;;;;;;;;5083601;28;20795;-62
2023/10/20 09:06:05;;;;;;;11.60;9.95;;;;;;;;;;5079356;28;20408;-60
2023/10/20 09:08:32;;;;;;;13.27;9.30;;;;;;;;;;5087544;28;20464;-62
2023/10/20 09:10:59;;;;;;;13.30;10.05;;;;;;;;;;5075615;28;20411;-62
2023/10/20 09:13:32;;;;;;;12.77;9.75;;;;;;;;;;5083051;28;20831;-61
2023/10/20 09:15:59;;;;;;;11.23;9.65;;;;;;;;;;5082400;28;20502;-62
2023/10/20 09:18:26;;;;;;;12.82;9.48;;;;;;;;;;5082719;28;20421;-62
2023/10/20 09:20:53;;;;;;;11.35;10.05;;;;;;;;;;5084090;28;20455;-62
2023/10/20 09:23:21;;;;;;;11.95;9.30;;;;;;;;;;5083492;28;20518;-62
2023/10/20 09:25:48;;;;;;;11.48;10.27;;;;;;;;;;5084841;28;20472;-62
2023/10/20 09:28:15;;;;;;;14.20;10.43;;;;;;;;;;5083759;28;20459;-62
2023/10/20 09:30:43;;;;;;;13.90;11.43;;;;;;;;;;5081991;28;20751;-61
2023/10/20 09:33:11;;;;;;;11.43;10.13;;;;;;;;;;5081498;28;20828;-62
2023/10/20 09:35:40;;;;;;;10.55;9.45;;;;;;;;;;5083607;28;20493;-62
2023/10/20 09:38:11;;;;;;;11.32;9.60;;;;;;;;;;5081152;28;20506;-62
2023/10/20 09:40:40;;;;;;;10.35;8.88;;;;;;;;;;5081002;28;20466;-61
2023/10/20 09:43:11;;;;;;;11.40;9.93;;;;;;;;;;5081322;28;20462;-62
2023/10/20 09:45:38;;;;;;;12.30;9.80;;;;;;;;;;5075339;28;20539;-62
2023/10/20 09:48:08;;;;;;;12.57;9.55;;;;;;;;;;5079827;28;20899;-62
2023/10/20 09:50:35;;;;;;;11.07;9.52;;;;;;;;;;5076799;28;20872;-62
2023/10/20 09:53:02;;;;;;;10.17;9.00;;;;;;;;;;5072168;28;20411;-62
2023/10/20 09:55:30;;;;;;;9.75;8.43;;;;;;;;;;5079240;28;20446;-62
2023/10/20 09:57:58;;;;;;;10.00;8.50;;;;;;;;;;5077014;28;20411;-66
2023/10/20 10:00:31;;;;;;;9.57;8.57;;;;;;;;;;5086796;28;20456;-64
2023/10/20 10:02:59;;;;;;;9.80;8.60;;;;;;;;;;5082392;28;20851;-61
2023/10/20 10:05:26;;;;;;;10.07;8.13;;;;;;;;;;5084600;28;20455;-62
2023/10/20 10:08:04;;;;;;;8.87;7.93;;;;;;;;;;5074928;28;20442;-62
2023/10/20 10:10:31;;;;;;;10.27;8.63;;;;;;;;;;5081740;28;20529;-62
2023/10/20 10:13:01;;;;;;;9.55;8.10;;;;;;;;;;5079041;28;20767;-65
2023/10/20 10:15:36;;;;;;;9.80;8.80;;;;;;;;;;5080176;28;20461;-62
2023/10/20 10:18:09;;;;;;;10.93;8.97;;;;;;;;;;5077847;28;21279;-63
2023/10/20 10:20:41;;;;;;;9.52;8.63;;;;;;;;;;5079769;28;20496;-62
2023/10/20 10:23:10;;;;;;;11.48;9.85;;;;;;;;;;5079647;28;20499;-59
2023/10/20 10:25:39;;;;;;;12.77;11.40;;;;;;;;;;5081503;28;20995;-61
2023/10/20 10:28:11;;;;;;;13.55;10.57;;;;;;;;;;5079528;28;20455;-64
2023/10/20 10:30:39;;;;;;;10.18;8.98;;;;;;;;;;5081744;28;20834;-66
2023/10/20 10:33:08;;;;;;;10.50;9.40;;;;;;;;;;5085056;28;20952;-65
2023/10/20 10:35:36;;;;;;;9.60;8.60;;;;;;;;;;5085802;28;20536;-64
2023/10/20 10:38:06;;;;;;;9.97;8.50;;;;;;;;;;5079723;28;21018;-63
2023/10/20 10:40:34;;;;;;;9.43;8.52;;;;;;;;;;5081607;28;20894;-62
2023/10/20 10:43:01;;;;;;;10.35;9.30;;;;;;;;;;5082416;28;20482;-62
2023/10/20 10:45:31;;;;;;;10.15;9.02;;;;;;;;;;5081835;28;20407;-62
2023/10/20 10:48:04;;;;;;;9.45;8.55;;;;;;;;;;5080784;28;20413;-62
2023/10/20 10:50:32;;;;;;;8.75;7.85;;;;;;;;;;5079994;28;20842;-61
2023/10/20 10:52:59;;;;;;;9.55;8.55;;;;;;;;;;5078465;28;20794;-62
2023/10/20 10:55:26;;;;;;;9.20;8.00;;;;;;;;;;5082072;28;20499;-62
2023/10/20 10:57:53;;;;;;;8.98;8.07;;;;;;;;;;5083885;28;20409;-61
2023/10/20 11:00:21;;;;;;;9.37;8.47;;;;;;;;;;5081653;28;20415;-61
2023/10/20 11:02:50;;;;;;;10.52;9.43;;;;;;;;;;5081015;28;20421;-61
2023/10/20 11:05:17;;;;;;;10.70;9.60;;;;;;;;;;5082298;28;20420;-62
2023/10/20 11:07:56;;;;;;;10.27;9.18;;;;;;;;;;5076495;28;20407;-61
2023/10/20 11:10:24;;;;;;;9.70;8.70;;;;;;;;;;5080296;28;20830;-61
2023/10/20 11:12:51;;;;;;;10.00;9.00;;;;;;;;;;5078490;28;20453;-62
2023/10/20 11:15:18;;;;;;;11.07;8.75;;;;;;;;;;5081701;28;20415;-60
2023/10/20 11:17:45;;;;;;;11.43;9.63;;;;;;;;;;5087654;28;20479;-60
2023/10/20 11:20:14;;;;;;;11.10;9.73;;;;;;;;;;5082590;28;20898;-58
2023/10/20 11:22:41;;;;;;;11.38;9.82;;;;;;;;;;5083656;28;20985;-61
2023/10/20 11:25:10;;;;;;;9.95;8.95;;;;;;;;;;5083852;28;20774;-62
2023/10/20 11:27:42;;;;;;;10.95;8.38;;;;;;;;;;5081664;28;20416;-62
2023/10/20 11:30:10;;;;;;;9.60;8.70;;;;;;;;;;5082610;28;20951;-62
2023/10/20 11:32:38;;;;;;;9.05;8.15;;;;;;;;;;5084368;28;20402;-61
2023/10/20 11:35:06;;;;;;;10.20;9.17;;;;;;;;;;5084536;28;20811;-60
2023/10/20 11:37:35;;;;;;;9.55;8.55;;;;;;;;;;5078345;28;20416;-59
2023/10/20 11:40:08;;;;;;;9.85;8.85;;;;;;;;;;5081516;28;20442;-60
2023/10/20 11:42:36;;;;;;;9.57;8.57;;;;;;;;;;5082771;28;20468;-57
2023/10/20 11:45:03;;;;;;;9.18;8.25;;;;;;;;;;5084282;28;20772;-62
2023/10/20 11:47:30;;;;;;;9.55;8.65;;;;;;;;;;5081775;28;20411;-63
2023/10/20 11:49:57;;;;;;;12.57;8.70;;;;;;;;;;5083283;28;20414;-62
2023/10/20 11:52:24;;;;;;;10.13;9.13;;;;;;;;;;5084493;28;20425;-62
2023/10/20 11:54:52;;;;;;;9.90;8.90;;;;;;;;;;5082931;28;20814;-62
2023/10/20 11:57:20;;;;;;;9.60;8.70;;;;;;;;;;5082556;28;20465;-60
2023/10/20 11:59:48;;;;;;;9.93;8.90;;;;;;;;;;5081661;28;20415;-63
2023/10/20 12:02:15;;;;;;;10.35;9.07;;;;;;;;;;5079123;28;20483;-63
2023/10/20 12:04:42;;;;;;;9.70;8.70;;;;;;;;;;5083660;28;20964;-63
2023/10/20 12:07:09;;;;;;;10.23;9.02;;;;;;;;;;5081073;28;20485;-62
2023/10/20 12:09:37;;;;;;;10.70;9.60;;;;;;;;;;5090540;28;20408;-62
2023/10/20 12:12:06;;;;;;;9.85;8.90;;;;;;;;;;5087305;28;20423;-62
2023/10/20 12:14:34;;;;;;;9.65;8.75;;;;;;;;;;5088548;28;20446;-61
2023/10/20 12:17:01;;;;;;;31.67;22.00;;;;;;;;;;5085103;28;20413;-62
2023/10/20 12:19:27;;;;;;;9.25;8.27;;;;;;;;;;5082179;28;20811;-63
2023/10/20 12:21:55;;;;;;;10.00;8.73;;;;;;;;;;5077634;28;20431;-62
2023/10/20 12:24:22;;;;;;;9.57;8.60;;;;;;;;;;5083649;28;20432;-61
2023/10/20 12:26:49;;;;;;;10.30;9.30;;;;;;;;;;5090938;28;21093;-60
2023/10/20 12:29:19;;;;;;;10.20;9.20;;;;;;;;;;5080690;28;20414;-61
2023/10/20 12:31:46;;;;;;;8.85;7.95;;;;;;;;;;5081070;28;20435;-62
2023/10/20 12:34:13;;;;;;;9.63;8.73;;;;;;;;;;5082288;28;20394;-63
2023/10/20 12:36:42;;;;;;;9.20;8.30;;;;;;;;;;5077165;28;20954;-62
2023/10/20 12:39:16;;;;;;;9.63;8.40;;;;;;;;;;5080400;28;20411;-63
2023/10/20 12:41:44;;;;;;;9.77;8.77;;;;;;;;;;5078935;28;20458;-63
2023/10/20 12:44:11;;;;;;;10.35;9.25;;;;;;;;;;5080495;28;20431;-63
2023/10/20 12:46:40;;;;;;;10.67;9.57;;;;;;;;;;5081730;28;20833;-61
2023/10/20 12:49:07;;;;;;;11.35;10.25;;;;;;;;;;5083420;28;20450;-61
2023/10/20 12:51:34;;;;;;;11.55;10.30;;;;;;;;;;5080171;28;20490;-62
2023/10/20 12:54:01;;;;;;;10.77;9.67;;;;;;;;;;5081810;28;20835;-64
2023/10/20 12:56:29;;;;;;;12.87;11.07;;;;;;;;;;5082216;28;20501;-63
2023/10/20 12:58:56;;;;;;;10.55;9.45;;;;;;;;;;5080051;28;20801;-61
2023/10/20 13:01:23;;;;;;;9.73;8.63;;;;;;;;;;5083101;28;20415;-60
2023/10/20 13:03:51;;;;;;;9.70;8.73;;;;;;;;;;5080280;28;20423;-61
2023/10/20 13:06:18;;;;;;;9.35;8.40;;;;;;;;;;5077371;28;20499;-62
2023/10/20 13:08:46;;;;;;;9.75;8.80;;;;;;;;;;5079753;28;20414;-60
2023/10/20 13:11:13;;;;;;;11.40;10.20;;;;;;;;;;5076375;28;20522;-58
2023/10/20 13:13:40;;;;;;;10.52;9.43;;;;;;;;;;5082949;28;20806;-60
2023/10/20 13:16:08;;;;;;;11.60;10.40;;;;;;;;;;5080233;28;20833;-60
2023/10/20 13:18:35;;;;;;;11.88;10.68;;;;;;;;;;5083016;28;20758;-60
2023/10/20 13:21:05;;;;;;;10.90;9.80;;;;;;;;;;5083135;28;20888;-65
2023/10/20 13:23:32;;;;;;;11.32;10.10;;;;;;;;;;5083306;28;20449;-65
2023/10/20 13:26:00;;;;;;;10.77;9.68;;;;;;;;;;5082359;28;20535;-65
2023/10/20 13:28:27;;;;;;;10.80;9.68;;;;;;;;;;5083406;28;20927;-65
2023/10/20 13:31:03;;;;;;;11.45;10.27;;;;;;;;;;5079418;28;20427;-65
2023/10/20 13:33:30;;;;;;;11.77;9.63;;;;;;;;;;5081792;28;20461;-66
2023/10/20 13:36:01;;;;;;;11.30;9.57;;;;;;;;;;5080211;28;20405;-67
2023/10/20 13:38:29;;;;;;;11.45;10.13;;;;;;;;;;5085049;28;20454;-66
2023/10/20 13:40:56;;;;;;;10.88;9.77;;;;;;;;;;5082356;28;20451;-65
2023/10/20 13:43:23;;;;;;;10.88;9.70;;;;;;;;;;5074867;28;20438;-63
2023/10/20 13:45:50;;;;;;;11.18;9.45;;;;;;;;;;5080422;28;20409;-63
2023/10/20 13:48:17;;;;;;;12.52;9.65;;;;;;;;;;5085888;28;20479;-62
2023/10/20 13:50:44;;;;;;;12.35;9.50;;;;;;;;;;5082998;28;20469;-63
2023/10/20 13:53:14;;;;;;;10.60;9.52;;;;;;;;;;5082962;28;20412;-64
2023/10/20 13:55:42;;;;;;;11.35;10.15;;;;;;;;;;5083360;28;20421;-63
2023/10/20 13:58:11;;;;;;;11.40;10.30;;;;;;;;;;5079451;28;20452;-62
2023/10/20 14:00:38;;;;;;;11.88;10.32;;;;;;;;;;5081729;28;20450;-62
2023/10/20 14:03:05;;;;;;;10.70;9.60;;;;;;;;;;5079267;28;20485;-62
2023/10/20 14:05:33;;;;;;;10.57;9.48;;;;;;;;;;5082399;28;20454;-62
2023/10/20 14:08:00;;;;;;;12.73;10.57;;;;;;;;;;5077539;28;20507;-62
2023/10/20 14:10:28;;;;;;;12.90;10.95;;;;;;;;;;5082245;28;20893;-63
2023/10/20 14:12:57;;;;;;;11.77;10.57;;;;;;;;;;5079234;28;20789;-63
2023/10/20 14:15:24;;;;;;;12.13;10.60;;;;;;;;;;5081303;28;20446;-64
2023/10/20 14:17:51;;;;;;;11.90;10.70;;;;;;;;;;5077834;28;20971;-63
2023/10/20 14:20:18;;;;;;;13.30;11.77;;;;;;;;;;5082241;28;20887;-67
2023/10/20 14:22:47;;;;;;;12.00;10.57;;;;;;;;;;5078789;28;20448;-67
2023/10/20 14:25:14;;;;;;;12.43;11.10;;;;;;;;;;5077146;28;21261;-66
2023/10/20 14:27:41;;;;;;;11.98;10.77;;;;;;;;;;5076596;28;20415;-68
2023/10/20 14:30:10;;;;;;;12.05;10.70;;;;;;;;;;5076149;28;20415;-65
2023/10/20 14:32:37;;;;;;;12.97;10.23;;;;;;;;;;5074456;28;20457;-65
2023/10/20 14:35:04;;;;;;;12.50;10.30;;;;;;;;;;5076851;28;20402;-65
2023/10/20 14:37:31;;;;;;;10.60;9.43;;;;;;;;;;5075570;28;20425;-66
2023/10/20 14:39:58;;;;;;;11.88;10.68;;;;;;;;;;5080044;28;20409;-66
2023/10/20 14:42:25;;;;;;;14.20;11.57;;;;;;;;;;5080807;28;20417;-67
2023/10/20 14:44:52;;;;;;;14.38;12.32;;;;;;;;;;5081978;28;20802;-66
2023/10/20 14:47:21;;;;;;;13.00;11.30;;;;;;;;;;5080460;28;20426;-65
2023/10/20 14:49:48;;;;;;;12.50;10.43;;;;;;;;;;5086501;28;20501;-63
2023/10/20 14:52:16;;;;;;;10.63;9.25;;;;;;;;;;5079986;28;20407;-64